Weather Refreshing every minute   No change Green  Reduced Blue  Increased Red  Changed Cyan
DescriptionDate Time (UTC/GMT)Temperature °CDew Point Temperature °CLiquid Freezing temperature °CMax Wind Direction °C Max Wind Speed m/sPrecipitation Total mmRain Intensity mm/hrRain On/OffRain State Relative Humidity %Surface StateSurface Temperature °CWater Layer mmWater Thickness mmWind Direction °D Wind Speed m/s
B1318 Great North Road 23/10/2019 10:30:00 12.4 6 0 0 4.8 0 0 Rain detector off No Precipitation 65 Dry 0 0 0 171 2
B1318 15/08/2019 19:50:00 13.6 7.7 0 0 1.6 0 0 Rain detector off No Precipitation 67.4 Dry 0 0 0 135 0.3
C304 Garesfield 23/10/2019 10:30:00 10 6.4 0 219 7.6 0 0 Rain detector off No Precipitation 78 Dry 0 0 0 218 4.6
A1231 Wessington Way 23/10/2019 10:20:00 11.6 7.2 0 272 1.6 0 0 Rain detector off No Precipitation 74 Dry 0 0 0 196 0.6
Burdon Lane 23/10/2019 10:20:00 9.7 5.8 0 0 2.5 0 0 Rain detector off Invalid 77 Dry 0 0 0 228 1.5
A690 Houghton Cut 23/10/2019 10:20:00 10.3 6.5 0 232 5.1 0 0 Rain detector off No Precipitation 77 Dry 0 0 0 182 3.4
A1018 Sunderland Road 23/10/2019 10:30:00 11.2 7 0 230 5.4 0 0 Rain detector off No Precipitation 75 Dry 0 0 0 176 3.5
Hedworth Lane 23/10/2019 10:30:00 11 6.6 0 294 6.2 0 0 Rain detector off No Precipitation 75 Unavailable 0 0 0 157 3.2
A185 Hebburn 23/10/2019 10:30:00 11.3 6.1 0 0 0 0 0 Rain detector off Invalid 70.4 Unavailable 0 0 0 0 0
A1058 Formica 23/10/2019 10:30:00 12.3 6.8 0 288 2.2 0 0 Rain detector off No Precipitation 69 Dry 0 0 0 151 1.2
A1 Berwick-upon-Tweed 23/10/2019 10:30:00 12 8.3 0 320 5.2 0 0 Rain detector off No Precipitation 78 Dry 0 0 0 263 3.3
A1 Haggerston 23/10/2019 10:20:00 12.4 8.9 0 296 6.6 0 0 Rain detector off No Precipitation 79 Unavailable 0 0 0 243 4.7
A1 Felton 23/10/2019 10:20:00 13.3 7.5 0 27 0.1 0 0 Rain detector off No Precipitation 68 Dry 0 0 0 222 0
A1 Rosebrough 23/10/2019 10:30:00 11.1 7.6 0 253 0 0 0 Rain detector off No Precipitation 79 Dry 0 0 0 212 0
A1 Stannington 23/10/2019 10:30:00 13 6.3 0 319 7.7 0 0 Rain detector off No Precipitation 64 Dry 0 0 0 192 3.7
A697 Longframlington 23/10/2019 10:30:00 10.7 6.6 0 357 4.2 0 0 Rain detector off No Precipitation 75 Dry 0 0 0 209 3.7
A698 Norham / B6470 The Salutation 23/10/2019 10:30:00 12.1 7.8 -0.3 241 9.3 0 0 Rain detector off No Precipitation 75 Trace of Chemical 0 0 0 196 6.2
A189 Cramlington 23/10/2019 10:30:00 13 6.8 0 275 6.6 0 0 Rain detector off No Precipitation 66 Dry 0 0 0 185 3.9
A69 Mowden Hall 23/10/2019 10:30:00 12.4 5.8 0 329 8.5 0 0 Rain detector off No Precipitation 64 Dry 0 0 0 236 5.4
A696 Raechester 23/10/2019 10:30:00 10.2 5.8 0 0 6.6 0 0 Rain detector off No Precipitation 74 Dry 0 0 0 189 5.9
A1 Metrocentre 23/10/2019 10:20:00 12.3 6.4 0 320 2.9 0 0 Rain detector off No Precipitation 67 Dry 0 0 0 144 1.1
A189 Redheugh Bridge 22/05/2019 10:35:00 0 0 0 216 8.5 0 0 Rain detector off Invalid 0 Invalid 0 0 0 288 3
A68 Tow Law 25/03/2019 14:10:00 9.3 -0.8 0 127 3.9 0 0 Rain detector off No Precipitation 49 Dry 0 0 0 328 1.8
A689 Lanehead 25/03/2019 14:10:00 9 0 0 1 6.5 0 0 Rain detector off No Precipitation 0 Dry 0 0 0 253 4.1
A194(M) Blackfell 25/03/2019 14:00:00 11.6 1.1 0 138 3.2 0 0 Rain detector off No Precipitation 48 Dry 0 0 0 31 1.3
Great Stainton 25/03/2019 14:10:00 9.2 1.6 0 147 5.6 0 0 Rain detector off No Precipitation 59 Dry 0 0 0 30 3.8
A6072 Redworth 25/03/2019 14:10:00 10.5 0 0 220 4.6 0 0 Rain detector off No Precipitation 48 Dry 0 0 0 181 2.8
A1 Coniscliffe 25/03/2019 14:00:00 12.3 -0.3 0 100 2.5 0 0 Rain detector off No Precipitation 42 Dry 0 0 0 301 1
A19 Low Stotfold 25/03/2019 14:10:00 9.5 0.7 0 85 7.5 0 0 Rain detector off No Precipitation 54 Dry 0 0 0 346 5.1
A66 Elton 25/03/2019 14:00:00 10.5 1.2 0 164 4.1 0 0 Rain detector off No Precipitation 53 Dry 0 0 0 17 2.1
A181 Running Waters 25/03/2019 14:10:00 9.9 0.5 0 127 4.4 0 0 Rain detector off No Precipitation 52 Dry 0 0 0 16 1.8
B6277 Forest in Teesdale 25/03/2019 14:10:00 8.8 0.8 0 72 4.3 0 0 Rain detector off No Precipitation 57 Dry 0 0 0 313 1.7
A66 North Bitts 25/03/2019 14:00:00 10.4 0.2 0 86 2.9 0 0 Rain detector off No Precipitation 49 Dry 0 0 0 275 1.3
B6309 Medomsley 25/03/2019 14:10:00 10.4 -1.1 0 95 6 0 0 Rain detector off No Precipitation 45 Dry 0 0 0 333 2.3
A689 Bradbury 25/03/2019 14:00:00 10.4 1.6 0 38 4.8 0 0 Rain detector off No Precipitation 54 Dry 0 0 0 308 2.6
B1432 Hawthorn 25/03/2019 14:10:00 8.6 0.9 0 121 7 0 0 Rain detector off No Precipitation 58 Dry 0 0 0 82 5
B6302 Ushaw Moor 25/03/2019 14:10:00 12 -0.2 0 316 4.4 0 0 Rain detector off No Precipitation 43 Dry 0 0 0 303 1.6
A689 Toronto 25/03/2019 14:10:00 10.7 0.5 0 13 3.8 0 0 Rain detector off No Precipitation 49 Dry 0 0 0 271 1.7
A66 Stainmore 25/03/2019 14:00:00 10.5 0.7 0 304 7.7 0 0 Unavailable Unavailable 59 Dry 0 0 0 250 5